sensor_id;sensor_type;location;lat;lon;timestamp;temperature;humidity
24158;DHT22;12316;50.904;4.200;2023-12-04T00:00:47;4.10;99.90
24158;DHT22;12316;50.904;4.200;2023-12-04T00:03:13;4.10;99.90
24158;DHT22;12316;50.904;4.200;2023-12-04T00:05:42;4.20;99.90
24158;DHT22;12316;50.904;4.200;2023-12-04T00:08:09;4.20;99.90
24158;DHT22;12316;50.904;4.200;2023-12-04T00:10:35;4.10;99.90
24158;DHT22;12316;50.904;4.200;2023-12-04T00:13:01;4.00;99.90
24158;DHT22;12316;50.904;4.200;2023-12-04T00:15:27;4.00;99.90
24158;DHT22;12316;50.904;4.200;2023-12-04T00:17:52;4.00;99.90
24158;DHT22;12316;50.904;4.200;2023-12-04T00:20:18;4.00;99.90
24158;DHT22;12316;50.904;4.200;2023-12-04T00:22:44;3.90;99.90
24158;DHT22;12316;50.904;4.200;2023-12-04T00:25:09;3.90;99.90
24158;DHT22;12316;50.904;4.200;2023-12-04T00:27:35;4.00;99.90
24158;DHT22;12316;50.904;4.200;2023-12-04T00:30:01;3.90;99.90
24158;DHT22;12316;50.904;4.200;2023-12-04T00:32:29;3.90;99.90
24158;DHT22;12316;50.904;4.200;2023-12-04T00:34:55;3.90;99.90
24158;DHT22;12316;50.904;4.200;2023-12-04T00:37:21;4.00;99.90
24158;DHT22;12316;50.904;4.200;2023-12-04T00:39:46;3.90;99.90
24158;DHT22;12316;50.904;4.200;2023-12-04T00:42:12;3.90;99.90
24158;DHT22;12316;50.904;4.200;2023-12-04T00:44:37;3.80;99.90
24158;DHT22;12316;50.904;4.200;2023-12-04T00:47:03;3.90;99.90
24158;DHT22;12316;50.904;4.200;2023-12-04T00:49:29;3.80;99.90
24158;DHT22;12316;50.904;4.200;2023-12-04T00:51:55;4.00;99.90
24158;DHT22;12316;50.904;4.200;2023-12-04T00:54:22;3.90;99.90
24158;DHT22;12316;50.904;4.200;2023-12-04T00:56:48;3.90;99.90
24158;DHT22;12316;50.904;4.200;2023-12-04T00:59:13;4.00;99.90
24158;DHT22;12316;50.904;4.200;2023-12-04T01:01:39;4.00;99.90
24158;DHT22;12316;50.904;4.200;2023-12-04T01:04:05;4.10;99.90
24158;DHT22;12316;50.904;4.200;2023-12-04T01:06:30;4.30;99.90
24158;DHT22;12316;50.904;4.200;2023-12-04T01:08:56;4.30;99.90
24158;DHT22;12316;50.904;4.200;2023-12-04T01:11:22;4.20;99.90
24158;DHT22;12316;50.904;4.200;2023-12-04T01:13:49;4.20;99.90
24158;DHT22;12316;50.904;4.200;2023-12-04T01:16:15;4.20;99.90
24158;DHT22;12316;50.904;4.200;2023-12-04T01:18:41;4.20;99.90
24158;DHT22;12316;50.904;4.200;2023-12-04T01:21:08;4.20;99.90
24158;DHT22;12316;50.904;4.200;2023-12-04T01:23:36;4.20;99.90
24158;DHT22;12316;50.904;4.200;2023-12-04T01:26:03;4.30;99.90
24158;DHT22;12316;50.904;4.200;2023-12-04T01:28:29;4.20;99.90
24158;DHT22;12316;50.904;4.200;2023-12-04T01:30:54;4.20;99.90
24158;DHT22;12316;50.904;4.200;2023-12-04T01:33:20;4.30;99.90
24158;DHT22;12316;50.904;4.200;2023-12-04T01:35:46;4.20;99.90
24158;DHT22;12316;50.904;4.200;2023-12-04T01:38:11;4.30;99.90
24158;DHT22;12316;50.904;4.200;2023-12-04T01:40:37;4.30;99.90
24158;DHT22;12316;50.904;4.200;2023-12-04T01:43:03;4.20;99.90
24158;DHT22;12316;50.904;4.200;2023-12-04T01:45:28;4.20;99.90
24158;DHT22;12316;50.904;4.200;2023-12-04T01:47:54;4.20;99.90
24158;DHT22;12316;50.904;4.200;2023-12-04T01:50:20;4.30;99.90
24158;DHT22;12316;50.904;4.200;2023-12-04T01:52:46;4.40;99.90
24158;DHT22;12316;50.904;4.200;2023-12-04T01:55:14;4.40;99.90
24158;DHT22;12316;50.904;4.200;2023-12-04T01:57:40;4.30;99.90
24158;DHT22;12316;50.904;4.200;2023-12-04T02:00:08;4.30;99.90
24158;DHT22;12316;50.904;4.200;2023-12-04T02:02:38;4.30;99.90
24158;DHT22;12316;50.904;4.200;2023-12-04T02:05:05;4.30;99.90
24158;DHT22;12316;50.904;4.200;2023-12-04T02:07:33;4.30;99.90
24158;DHT22;12316;50.904;4.200;2023-12-04T02:09:59;4.40;99.90
24158;DHT22;12316;50.904;4.200;2023-12-04T02:12:25;4.40;99.90
24158;DHT22;12316;50.904;4.200;2023-12-04T02:14:51;4.50;99.90
24158;DHT22;12316;50.904;4.200;2023-12-04T02:17:18;4.30;99.90
24158;DHT22;12316;50.904;4.200;2023-12-04T02:19:44;4.40;99.90
24158;DHT22;12316;50.904;4.200;2023-12-04T02:22:10;4.40;99.90
24158;DHT22;12316;50.904;4.200;2023-12-04T02:24:36;4.50;99.90
24158;DHT22;12316;50.904;4.200;2023-12-04T02:27:12;4.40;99.90
24158;DHT22;12316;50.904;4.200;2023-12-04T02:29:52;4.40;99.90
24158;DHT22;12316;50.904;4.200;2023-12-04T02:32:21;4.40;99.90
24158;DHT22;12316;50.904;4.200;2023-12-04T02:34:48;4.50;99.90
24158;DHT22;12316;50.904;4.200;2023-12-04T02:37:15;4.40;99.90
24158;DHT22;12316;50.904;4.200;2023-12-04T02:39:42;4.50;99.90
24158;DHT22;12316;50.904;4.200;2023-12-04T02:42:08;4.40;99.90
24158;DHT22;12316;50.904;4.200;2023-12-04T02:44:34;4.40;99.90
24158;DHT22;12316;50.904;4.200;2023-12-04T02:47:00;4.50;99.90
24158;DHT22;12316;50.904;4.200;2023-12-04T02:49:25;4.50;99.90
24158;DHT22;12316;50.904;4.200;2023-12-04T02:51:51;4.50;99.90
24158;DHT22;12316;50.904;4.200;2023-12-04T02:54:17;4.40;99.90
24158;DHT22;12316;50.904;4.200;2023-12-04T02:56:43;4.50;99.90
24158;DHT22;12316;50.904;4.200;2023-12-04T02:59:08;4.40;99.90
24158;DHT22;12316;50.904;4.200;2023-12-04T03:01:34;4.20;99.90
24158;DHT22;12316;50.904;4.200;2023-12-04T03:04:00;4.20;99.90
24158;DHT22;12316;50.904;4.200;2023-12-04T03:06:25;4.20;99.90
24158;DHT22;12316;50.904;4.200;2023-12-04T03:08:51;4.10;99.90
24158;DHT22;12316;50.904;4.200;2023-12-04T03:11:17;3.90;99.90
24158;DHT22;12316;50.904;4.200;2023-12-04T03:13:43;3.90;99.90
24158;DHT22;12316;50.904;4.200;2023-12-04T03:16:16;3.80;99.90
24158;DHT22;12316;50.904;4.200;2023-12-04T03:18:42;3.70;99.90
24158;DHT22;12316;50.904;4.200;2023-12-04T03:21:08;3.80;99.90
24158;DHT22;12316;50.904;4.200;2023-12-04T03:23:33;3.80;99.90
24158;DHT22;12316;50.904;4.200;2023-12-04T03:25:59;3.90;99.90
24158;DHT22;12316;50.904;4.200;2023-12-04T03:28:24;4.10;99.90
24158;DHT22;12316;50.904;4.200;2023-12-04T03:30:50;4.10;99.90
24158;DHT22;12316;50.904;4.200;2023-12-04T03:33:16;4.10;99.90
24158;DHT22;12316;50.904;4.200;2023-12-04T03:35:41;3.90;99.90
24158;DHT22;12316;50.904;4.200;2023-12-04T03:38:07;3.90;99.90
24158;DHT22;12316;50.904;4.200;2023-12-04T03:40:33;3.90;99.90
24158;DHT22;12316;50.904;4.200;2023-12-04T03:42:58;3.80;99.90
24158;DHT22;12316;50.904;4.200;2023-12-04T03:45:24;3.80;99.90
24158;DHT22;12316;50.904;4.200;2023-12-04T03:47:50;3.80;99.90
24158;DHT22;12316;50.904;4.200;2023-12-04T03:50:16;3.90;99.90
24158;DHT22;12316;50.904;4.200;2023-12-04T03:52:41;4.00;99.90
24158;DHT22;12316;50.904;4.200;2023-12-04T03:55:08;4.10;99.90
24158;DHT22;12316;50.904;4.200;2023-12-04T03:57:34;4.20;99.90
24158;DHT22;12316;50.904;4.200;2023-12-04T04:00:00;4.10;99.90
24158;DHT22;12316;50.904;4.200;2023-12-04T04:02:25;4.00;99.90
24158;DHT22;12316;50.904;4.200;2023-12-04T04:04:51;3.90;99.90
24158;DHT22;12316;50.904;4.200;2023-12-04T04:07:17;4.00;99.90
24158;DHT22;12316;50.904;4.200;2023-12-04T04:09:43;4.00;99.90
24158;DHT22;12316;50.904;4.200;2023-12-04T04:12:09;4.00;99.90
24158;DHT22;12316;50.904;4.200;2023-12-04T04:14:34;3.90;99.90
24158;DHT22;12316;50.904;4.200;2023-12-04T04:17:00;4.00;99.90
24158;DHT22;12316;50.904;4.200;2023-12-04T04:19:25;4.30;99.90
24158;DHT22;12316;50.904;4.200;2023-12-04T04:21:52;4.30;99.90
24158;DHT22;12316;50.904;4.200;2023-12-04T04:24:18;4.40;99.90
24158;DHT22;12316;50.904;4.200;2023-12-04T04:26:43;4.40;99.90
24158;DHT22;12316;50.904;4.200;2023-12-04T04:29:09;4.50;99.90
24158;DHT22;12316;50.904;4.200;2023-12-04T04:31:35;4.60;99.90
24158;DHT22;12316;50.904;4.200;2023-12-04T04:34:00;4.70;99.90
24158;DHT22;12316;50.904;4.200;2023-12-04T04:36:26;4.70;99.90
24158;DHT22;12316;50.904;4.200;2023-12-04T04:38:52;4.60;99.90
24158;DHT22;12316;50.904;4.200;2023-12-04T04:41:17;4.50;99.90
24158;DHT22;12316;50.904;4.200;2023-12-04T04:43:43;4.60;99.90
24158;DHT22;12316;50.904;4.200;2023-12-04T04:46:09;4.60;99.90
24158;DHT22;12316;50.904;4.200;2023-12-04T04:48:35;4.70;99.90
24158;DHT22;12316;50.904;4.200;2023-12-04T04:51:01;4.80;99.90
24158;DHT22;12316;50.904;4.200;2023-12-04T04:53:26;4.80;99.90
24158;DHT22;12316;50.904;4.200;2023-12-04T04:55:52;4.70;99.90
24158;DHT22;12316;50.904;4.200;2023-12-04T04:58:18;4.70;99.90
24158;DHT22;12316;50.904;4.200;2023-12-04T05:00:44;4.60;99.90
24158;DHT22;12316;50.904;4.200;2023-12-04T05:03:10;4.60;99.90
24158;DHT22;12316;50.904;4.200;2023-12-04T05:05:36;4.70;99.90
24158;DHT22;12316;50.904;4.200;2023-12-04T05:08:01;4.70;99.90
24158;DHT22;12316;50.904;4.200;2023-12-04T05:10:27;4.60;99.90
24158;DHT22;12316;50.904;4.200;2023-12-04T05:12:53;4.50;99.90
24158;DHT22;12316;50.904;4.200;2023-12-04T05:15:18;4.60;99.90
24158;DHT22;12316;50.904;4.200;2023-12-04T05:17:44;4.40;99.90
24158;DHT22;12316;50.904;4.200;2023-12-04T05:20:10;4.60;99.90
24158;DHT22;12316;50.904;4.200;2023-12-04T05:22:36;4.60;99.90
24158;DHT22;12316;50.904;4.200;2023-12-04T05:25:01;4.60;99.90
24158;DHT22;12316;50.904;4.200;2023-12-04T05:27:27;4.70;99.90
24158;DHT22;12316;50.904;4.200;2023-12-04T05:29:53;4.60;99.90
24158;DHT22;12316;50.904;4.200;2023-12-04T05:32:18;4.60;99.90
24158;DHT22;12316;50.904;4.200;2023-12-04T05:34:44;4.60;99.90
24158;DHT22;12316;50.904;4.200;2023-12-04T05:37:09;4.70;99.90
24158;DHT22;12316;50.904;4.200;2023-12-04T05:39:35;4.70;99.90
24158;DHT22;12316;50.904;4.200;2023-12-04T05:42:01;4.60;99.90
24158;DHT22;12316;50.904;4.200;2023-12-04T05:44:27;4.80;99.90
24158;DHT22;12316;50.904;4.200;2023-12-04T05:46:52;4.80;99.90
24158;DHT22;12316;50.904;4.200;2023-12-04T05:49:18;4.80;99.90
24158;DHT22;12316;50.904;4.200;2023-12-04T05:51:44;4.50;99.90
24158;DHT22;12316;50.904;4.200;2023-12-04T05:54:09;4.40;99.90
24158;DHT22;12316;50.904;4.200;2023-12-04T05:56:35;4.40;99.90
24158;DHT22;12316;50.904;4.200;2023-12-04T05:59:01;4.40;99.90
24158;DHT22;12316;50.904;4.200;2023-12-04T06:01:27;4.50;99.90
24158;DHT22;12316;50.904;4.200;2023-12-04T06:03:53;4.60;99.90
24158;DHT22;12316;50.904;4.200;2023-12-04T06:06:18;4.60;99.90
24158;DHT22;12316;50.904;4.200;2023-12-04T06:08:44;4.70;99.90
24158;DHT22;12316;50.904;4.200;2023-12-04T06:11:10;4.80;99.90
24158;DHT22;12316;50.904;4.200;2023-12-04T06:13:36;4.80;99.90
24158;DHT22;12316;50.904;4.200;2023-12-04T06:16:02;4.80;99.90
24158;DHT22;12316;50.904;4.200;2023-12-04T06:18:28;4.70;99.90
24158;DHT22;12316;50.904;4.200;2023-12-04T06:20:53;4.70;99.90
24158;DHT22;12316;50.904;4.200;2023-12-04T06:23:19;4.60;99.90
24158;DHT22;12316;50.904;4.200;2023-12-04T06:25:45;4.40;99.90
24158;DHT22;12316;50.904;4.200;2023-12-04T06:28:11;4.40;99.90
24158;DHT22;12316;50.904;4.200;2023-12-04T06:30:38;4.60;99.90
24158;DHT22;12316;50.904;4.200;2023-12-04T06:33:04;4.60;99.90
24158;DHT22;12316;50.904;4.200;2023-12-04T06:35:30;4.60;99.90
24158;DHT22;12316;50.904;4.200;2023-12-04T06:38:00;4.50;99.90
24158;DHT22;12316;50.904;4.200;2023-12-04T06:40:29;4.40;99.90
24158;DHT22;12316;50.904;4.200;2023-12-04T06:42:55;4.20;99.90
24158;DHT22;12316;50.904;4.200;2023-12-04T06:45:21;4.30;99.90
24158;DHT22;12316;50.904;4.200;2023-12-04T06:47:48;4.40;99.90
24158;DHT22;12316;50.904;4.200;2023-12-04T06:50:15;4.30;99.90
24158;DHT22;12316;50.904;4.200;2023-12-04T06:52:41;4.40;99.90
24158;DHT22;12316;50.904;4.200;2023-12-04T06:55:07;4.40;99.90
24158;DHT22;12316;50.904;4.200;2023-12-04T06:57:34;4.50;99.90
24158;DHT22;12316;50.904;4.200;2023-12-04T06:59:59;4.40;99.90
24158;DHT22;12316;50.904;4.200;2023-12-04T07:02:25;4.60;99.90
24158;DHT22;12316;50.904;4.200;2023-12-04T07:04:52;4.60;99.90
24158;DHT22;12316;50.904;4.200;2023-12-04T07:07:18;4.40;99.90
24158;DHT22;12316;50.904;4.200;2023-12-04T07:09:44;4.40;99.90
24158;DHT22;12316;50.904;4.200;2023-12-04T07:12:09;4.40;99.90
24158;DHT22;12316;50.904;4.200;2023-12-04T07:14:35;4.50;99.90
24158;DHT22;12316;50.904;4.200;2023-12-04T07:17:01;4.50;99.90
24158;DHT22;12316;50.904;4.200;2023-12-04T07:19:27;4.50;99.90
24158;DHT22;12316;50.904;4.200;2023-12-04T07:21:52;4.50;99.90
24158;DHT22;12316;50.904;4.200;2023-12-04T07:24:18;4.60;99.90
24158;DHT22;12316;50.904;4.200;2023-12-04T07:26:44;4.60;99.90
24158;DHT22;12316;50.904;4.200;2023-12-04T07:29:10;4.60;99.90
24158;DHT22;12316;50.904;4.200;2023-12-04T07:31:36;4.60;99.90
24158;DHT22;12316;50.904;4.200;2023-12-04T07:34:02;4.70;99.90
24158;DHT22;12316;50.904;4.200;2023-12-04T07:36:28;4.70;99.90
24158;DHT22;12316;50.904;4.200;2023-12-04T07:38:54;4.70;99.90
24158;DHT22;12316;50.904;4.200;2023-12-04T07:41:20;4.60;99.90
24158;DHT22;12316;50.904;4.200;2023-12-04T07:43:48;4.60;99.90
24158;DHT22;12316;50.904;4.200;2023-12-04T07:46:14;4.50;99.90
24158;DHT22;12316;50.904;4.200;2023-12-04T07:48:39;4.50;99.90
24158;DHT22;12316;50.904;4.200;2023-12-04T07:51:06;4.40;99.90
24158;DHT22;12316;50.904;4.200;2023-12-04T07:53:32;4.50;99.90
24158;DHT22;12316;50.904;4.200;2023-12-04T07:56:01;4.50;99.90
24158;DHT22;12316;50.904;4.200;2023-12-04T07:58:30;4.60;99.90
24158;DHT22;12316;50.904;4.200;2023-12-04T08:00:56;4.70;99.90
24158;DHT22;12316;50.904;4.200;2023-12-04T08:03:21;4.70;99.90
24158;DHT22;12316;50.904;4.200;2023-12-04T08:05:52;4.50;99.90
24158;DHT22;12316;50.904;4.200;2023-12-04T08:08:18;4.40;99.90
24158;DHT22;12316;50.904;4.200;2023-12-04T08:10:44;4.50;99.90
24158;DHT22;12316;50.904;4.200;2023-12-04T08:13:10;4.50;99.90
24158;DHT22;12316;50.904;4.200;2023-12-04T08:15:36;4.40;99.90
24158;DHT22;12316;50.904;4.200;2023-12-04T08:18:02;4.30;99.90
24158;DHT22;12316;50.904;4.200;2023-12-04T08:20:28;4.20;99.90
24158;DHT22;12316;50.904;4.200;2023-12-04T08:22:54;4.30;99.90
24158;DHT22;12316;50.904;4.200;2023-12-04T08:25:20;4.20;99.90
24158;DHT22;12316;50.904;4.200;2023-12-04T08:27:46;4.20;99.90
24158;DHT22;12316;50.904;4.200;2023-12-04T08:30:12;4.30;99.90
24158;DHT22;12316;50.904;4.200;2023-12-04T08:32:37;4.50;99.90
24158;DHT22;12316;50.904;4.200;2023-12-04T08:35:04;4.70;99.90
24158;DHT22;12316;50.904;4.200;2023-12-04T08:37:31;4.60;99.90
24158;DHT22;12316;50.904;4.200;2023-12-04T08:39:57;4.50;99.90
24158;DHT22;12316;50.904;4.200;2023-12-04T08:42:23;4.70;99.90
24158;DHT22;12316;50.904;4.200;2023-12-04T08:44:48;4.70;99.90
24158;DHT22;12316;50.904;4.200;2023-12-04T08:47:14;4.60;99.90
24158;DHT22;12316;50.904;4.200;2023-12-04T08:49:40;4.70;99.90
24158;DHT22;12316;50.904;4.200;2023-12-04T08:52:07;4.60;99.90
24158;DHT22;12316;50.904;4.200;2023-12-04T08:54:32;4.60;99.90
24158;DHT22;12316;50.904;4.200;2023-12-04T08:56:58;4.50;99.90
24158;DHT22;12316;50.904;4.200;2023-12-04T08:59:24;4.50;99.90
24158;DHT22;12316;50.904;4.200;2023-12-04T09:01:50;4.60;99.90
24158;DHT22;12316;50.904;4.200;2023-12-04T09:04:15;4.50;99.90
24158;DHT22;12316;50.904;4.200;2023-12-04T09:06:41;4.50;99.90
24158;DHT22;12316;50.904;4.200;2023-12-04T09:09:07;4.50;99.90
24158;DHT22;12316;50.904;4.200;2023-12-04T09:11:33;4.50;99.90
24158;DHT22;12316;50.904;4.200;2023-12-04T09:13:58;4.40;99.90
24158;DHT22;12316;50.904;4.200;2023-12-04T09:16:24;4.30;99.90
24158;DHT22;12316;50.904;4.200;2023-12-04T09:18:50;4.30;99.90
24158;DHT22;12316;50.904;4.200;2023-12-04T09:21:16;4.20;99.90
24158;DHT22;12316;50.904;4.200;2023-12-04T09:23:42;4.40;99.90
24158;DHT22;12316;50.904;4.200;2023-12-04T09:26:07;4.60;99.90
24158;DHT22;12316;50.904;4.200;2023-12-04T09:28:35;4.50;99.90
24158;DHT22;12316;50.904;4.200;2023-12-04T09:31:00;4.60;99.90
24158;DHT22;12316;50.904;4.200;2023-12-04T09:33:26;4.80;99.90
24158;DHT22;12316;50.904;4.200;2023-12-04T09:35:52;4.70;99.90
24158;DHT22;12316;50.904;4.200;2023-12-04T09:38:18;4.60;99.90
24158;DHT22;12316;50.904;4.200;2023-12-04T09:40:44;4.50;99.90
24158;DHT22;12316;50.904;4.200;2023-12-04T09:43:09;4.40;99.90
24158;DHT22;12316;50.904;4.200;2023-12-04T09:45:36;4.50;99.90
24158;DHT22;12316;50.904;4.200;2023-12-04T09:48:03;4.50;99.90
24158;DHT22;12316;50.904;4.200;2023-12-04T09:50:29;4.60;99.90
24158;DHT22;12316;50.904;4.200;2023-12-04T09:53:00;4.80;99.90
24158;DHT22;12316;50.904;4.200;2023-12-04T09:55:26;4.80;99.90
24158;DHT22;12316;50.904;4.200;2023-12-04T09:57:52;4.50;99.90
24158;DHT22;12316;50.904;4.200;2023-12-04T10:00:20;4.50;99.90
24158;DHT22;12316;50.904;4.200;2023-12-04T10:02:47;4.30;99.90
24158;DHT22;12316;50.904;4.200;2023-12-04T10:05:13;4.30;99.90
24158;DHT22;12316;50.904;4.200;2023-12-04T10:07:39;4.30;99.90
24158;DHT22;12316;50.904;4.200;2023-12-04T10:10:06;3.90;99.90
24158;DHT22;12316;50.904;4.200;2023-12-04T10:12:33;3.80;99.90
24158;DHT22;12316;50.904;4.200;2023-12-04T10:17:37;4.00;99.90
24158;DHT22;12316;50.904;4.200;2023-12-04T10:20:15;4.00;99.90
24158;DHT22;12316;50.904;4.200;2023-12-04T10:25:19;3.90;99.90
24158;DHT22;12316;50.904;4.200;2023-12-04T10:27:46;4.10;99.90
24158;DHT22;12316;50.904;4.200;2023-12-04T10:30:28;4.00;99.90
24158;DHT22;12316;50.904;4.200;2023-12-04T10:32:56;4.20;99.90
24158;DHT22;12316;50.904;4.200;2023-12-04T10:35:29;4.20;99.90
24158;DHT22;12316;50.904;4.200;2023-12-04T10:37:56;4.00;99.90
24158;DHT22;12316;50.904;4.200;2023-12-04T10:40:26;4.00;99.90
24158;DHT22;12316;50.904;4.200;2023-12-04T10:45:37;4.10;99.90
24158;DHT22;12316;50.904;4.200;2023-12-04T10:48:03;4.10;99.90
24158;DHT22;12316;50.904;4.200;2023-12-04T10:50:36;4.10;99.90
24158;DHT22;12316;50.904;4.200;2023-12-04T10:53:06;4.20;99.90
24158;DHT22;12316;50.904;4.200;2023-12-04T10:55:33;4.30;99.90
24158;DHT22;12316;50.904;4.200;2023-12-04T10:58:04;4.50;99.90
24158;DHT22;12316;50.904;4.200;2023-12-04T11:00:33;4.30;99.90
24158;DHT22;12316;50.904;4.200;2023-12-04T11:03:07;4.30;99.90
24158;DHT22;12316;50.904;4.200;2023-12-04T11:05:37;4.30;99.90
24158;DHT22;12316;50.904;4.200;2023-12-04T11:08:08;4.40;99.90
24158;DHT22;12316;50.904;4.200;2023-12-04T11:11:26;4.40;99.90
24158;DHT22;12316;50.904;4.200;2023-12-04T11:13:31;4.40;99.90
24158;DHT22;12316;50.904;4.200;2023-12-04T11:16:34;4.50;99.90
24158;DHT22;12316;50.904;4.200;2023-12-04T11:21:39;4.80;99.90
24158;DHT22;12316;50.904;4.200;2023-12-04T11:24:06;4.90;99.90
24158;DHT22;12316;50.904;4.200;2023-12-04T11:26:33;4.90;99.90
24158;DHT22;12316;50.904;4.200;2023-12-04T11:29:00;5.10;99.90
24158;DHT22;12316;50.904;4.200;2023-12-04T11:31:27;5.00;99.90
24158;DHT22;12316;50.904;4.200;2023-12-04T11:34:01;5.00;99.90
24158;DHT22;12316;50.904;4.200;2023-12-04T11:36:28;5.00;99.90
24158;DHT22;12316;50.904;4.200;2023-12-04T11:38:53;4.90;99.90
24158;DHT22;12316;50.904;4.200;2023-12-04T11:41:22;4.90;99.90
24158;DHT22;12316;50.904;4.200;2023-12-04T11:43:48;4.90;99.90
24158;DHT22;12316;50.904;4.200;2023-12-04T11:46:20;5.00;99.90
24158;DHT22;12316;50.904;4.200;2023-12-04T11:48:49;5.00;99.90
24158;DHT22;12316;50.904;4.200;2023-12-04T11:54:04;4.80;99.90
24158;DHT22;12316;50.904;4.200;2023-12-04T11:56:30;4.90;99.90
24158;DHT22;12316;50.904;4.200;2023-12-04T11:59:06;4.80;99.90
24158;DHT22;12316;50.904;4.200;2023-12-04T12:01:39;4.80;99.90
24158;DHT22;12316;50.904;4.200;2023-12-04T12:04:05;4.70;99.90
24158;DHT22;12316;50.904;4.200;2023-12-04T12:06:31;4.80;99.90
24158;DHT22;12316;50.904;4.200;2023-12-04T12:08:57;4.70;99.90
24158;DHT22;12316;50.904;4.200;2023-12-04T12:11:24;4.70;99.90
24158;DHT22;12316;50.904;4.200;2023-12-04T12:13:53;4.70;99.90
24158;DHT22;12316;50.904;4.200;2023-12-04T12:16:18;4.70;99.90
24158;DHT22;12316;50.904;4.200;2023-12-04T12:18:44;4.80;99.90
24158;DHT22;12316;50.904;4.200;2023-12-04T12:21:10;5.10;99.90
24158;DHT22;12316;50.904;4.200;2023-12-04T12:23:36;5.00;99.90
24158;DHT22;12316;50.904;4.200;2023-12-04T12:26:02;4.90;99.90
24158;DHT22;12316;50.904;4.200;2023-12-04T12:28:28;5.00;99.90
24158;DHT22;12316;50.904;4.200;2023-12-04T12:30:55;5.10;99.90
24158;DHT22;12316;50.904;4.200;2023-12-04T12:33:21;5.10;99.90
24158;DHT22;12316;50.904;4.200;2023-12-04T12:35:49;5.10;99.90
24158;DHT22;12316;50.904;4.200;2023-12-04T12:38:15;5.10;99.90
24158;DHT22;12316;50.904;4.200;2023-12-04T12:40:41;5.00;99.90
24158;DHT22;12316;50.904;4.200;2023-12-04T12:43:08;4.80;99.90
24158;DHT22;12316;50.904;4.200;2023-12-04T12:45:44;4.90;99.90
24158;DHT22;12316;50.904;4.200;2023-12-04T12:48:16;4.90;99.90
24158;DHT22;12316;50.904;4.200;2023-12-04T12:50:48;4.80;99.90
24158;DHT22;12316;50.904;4.200;2023-12-04T12:53:14;4.70;99.90
24158;DHT22;12316;50.904;4.200;2023-12-04T12:55:43;4.90;99.90
24158;DHT22;12316;50.904;4.200;2023-12-04T12:58:12;4.80;99.90
24158;DHT22;12316;50.904;4.200;2023-12-04T13:00:47;4.70;99.90
24158;DHT22;12316;50.904;4.200;2023-12-04T13:03:17;4.70;99.90
24158;DHT22;12316;50.904;4.200;2023-12-04T13:05:43;4.70;99.90
24158;DHT22;12316;50.904;4.200;2023-12-04T13:08:10;4.90;99.90
24158;DHT22;12316;50.904;4.200;2023-12-04T13:10:41;5.00;99.90
24158;DHT22;12316;50.904;4.200;2023-12-04T13:13:13;5.00;99.90
24158;DHT22;12316;50.904;4.200;2023-12-04T13:15:39;5.00;99.90
24158;DHT22;12316;50.904;4.200;2023-12-04T13:18:07;5.10;99.90
24158;DHT22;12316;50.904;4.200;2023-12-04T13:20:32;4.90;99.90
24158;DHT22;12316;50.904;4.200;2023-12-04T13:22:59;4.90;99.90
24158;DHT22;12316;50.904;4.200;2023-12-04T13:25:26;5.10;99.90
24158;DHT22;12316;50.904;4.200;2023-12-04T13:27:52;5.00;99.90
24158;DHT22;12316;50.904;4.200;2023-12-04T13:30:18;5.00;99.90
24158;DHT22;12316;50.904;4.200;2023-12-04T13:32:45;5.10;99.90
24158;DHT22;12316;50.904;4.200;2023-12-04T13:35:10;5.20;99.90
24158;DHT22;12316;50.904;4.200;2023-12-04T13:37:36;5.20;99.90
24158;DHT22;12316;50.904;4.200;2023-12-04T13:40:05;5.20;99.90
24158;DHT22;12316;50.904;4.200;2023-12-04T13:42:37;5.20;99.90
24158;DHT22;12316;50.904;4.200;2023-12-04T13:45:22;5.20;99.90
24158;DHT22;12316;50.904;4.200;2023-12-04T13:47:49;5.30;99.90
24158;DHT22;12316;50.904;4.200;2023-12-04T13:50:15;5.30;99.90
24158;DHT22;12316;50.904;4.200;2023-12-04T13:52:40;5.20;99.90
24158;DHT22;12316;50.904;4.200;2023-12-04T13:55:08;5.30;99.90
24158;DHT22;12316;50.904;4.200;2023-12-04T13:57:45;5.30;99.90
24158;DHT22;12316;50.904;4.200;2023-12-04T14:00:34;5.30;99.90
24158;DHT22;12316;50.904;4.200;2023-12-04T14:03:00;5.40;99.90
24158;DHT22;12316;50.904;4.200;2023-12-04T14:05:30;5.30;99.90
24158;DHT22;12316;50.904;4.200;2023-12-04T14:07:55;5.20;99.90
24158;DHT22;12316;50.904;4.200;2023-12-04T14:10:22;5.20;99.90
24158;DHT22;12316;50.904;4.200;2023-12-04T14:12:48;5.20;99.90
24158;DHT22;12316;50.904;4.200;2023-12-04T14:15:14;5.20;99.90
24158;DHT22;12316;50.904;4.200;2023-12-04T14:17:40;5.20;99.90
24158;DHT22;12316;50.904;4.200;2023-12-04T14:20:06;5.20;99.90
24158;DHT22;12316;50.904;4.200;2023-12-04T14:22:40;5.20;99.90
24158;DHT22;12316;50.904;4.200;2023-12-04T14:25:06;5.30;99.90
24158;DHT22;12316;50.904;4.200;2023-12-04T14:27:32;5.30;99.90
24158;DHT22;12316;50.904;4.200;2023-12-04T14:29:58;5.20;99.90
24158;DHT22;12316;50.904;4.200;2023-12-04T14:32:23;5.20;99.90
24158;DHT22;12316;50.904;4.200;2023-12-04T14:34:49;5.20;99.90
24158;DHT22;12316;50.904;4.200;2023-12-04T14:37:14;5.20;99.90
24158;DHT22;12316;50.904;4.200;2023-12-04T14:39:41;5.20;99.90
24158;DHT22;12316;50.904;4.200;2023-12-04T14:42:06;5.20;99.90
24158;DHT22;12316;50.904;4.200;2023-12-04T14:44:32;5.30;99.90
24158;DHT22;12316;50.904;4.200;2023-12-04T14:46:59;5.40;99.90
24158;DHT22;12316;50.904;4.200;2023-12-04T14:49:25;5.30;99.90
24158;DHT22;12316;50.904;4.200;2023-12-04T14:51:50;5.30;99.90
24158;DHT22;12316;50.904;4.200;2023-12-04T14:54:16;5.40;99.90
24158;DHT22;12316;50.904;4.200;2023-12-04T14:57:04;5.40;99.90
24158;DHT22;12316;50.904;4.200;2023-12-04T14:59:34;5.30;99.90
24158;DHT22;12316;50.904;4.200;2023-12-04T15:02:02;5.30;99.90
24158;DHT22;12316;50.904;4.200;2023-12-04T15:04:47;5.30;99.90
24158;DHT22;12316;50.904;4.200;2023-12-04T15:07:44;5.40;99.90
24158;DHT22;12316;50.904;4.200;2023-12-04T15:10:28;5.30;99.90
24158;DHT22;12316;50.904;4.200;2023-12-04T15:13:04;5.40;99.90
24158;DHT22;12316;50.904;4.200;2023-12-04T15:15:30;5.30;99.90
24158;DHT22;12316;50.904;4.200;2023-12-04T15:18:01;5.40;99.90
24158;DHT22;12316;50.904;4.200;2023-12-04T15:20:46;5.50;99.90
24158;DHT22;12316;50.904;4.200;2023-12-04T15:23:13;5.50;99.90
24158;DHT22;12316;50.904;4.200;2023-12-04T15:25:39;5.50;99.90
24158;DHT22;12316;50.904;4.200;2023-12-04T15:28:05;5.40;99.90
24158;DHT22;12316;50.904;4.200;2023-12-04T15:30:35;5.50;99.90
24158;DHT22;12316;50.904;4.200;2023-12-04T15:33:01;5.50;99.90
24158;DHT22;12316;50.904;4.200;2023-12-04T15:35:28;5.40;99.90
24158;DHT22;12316;50.904;4.200;2023-12-04T15:37:53;5.40;99.90
24158;DHT22;12316;50.904;4.200;2023-12-04T15:40:20;5.50;99.90
24158;DHT22;12316;50.904;4.200;2023-12-04T15:42:45;5.40;99.90
24158;DHT22;12316;50.904;4.200;2023-12-04T15:45:11;5.40;99.90
24158;DHT22;12316;50.904;4.200;2023-12-04T15:47:37;5.40;99.90
24158;DHT22;12316;50.904;4.200;2023-12-04T15:50:03;5.40;99.90
24158;DHT22;12316;50.904;4.200;2023-12-04T15:52:31;5.50;99.90
24158;DHT22;12316;50.904;4.200;2023-12-04T15:54:56;5.50;99.90
24158;DHT22;12316;50.904;4.200;2023-12-04T15:57:23;5.60;99.90